createdAt,value
2022-12-23T00:02:37.322Z,100352.81
2022-12-23T00:05:40.244Z,100341.00
2022-12-23T00:08:44.494Z,100373.75
2022-12-23T00:12:14.642Z,100379.31
2022-12-23T00:15:16.460Z,100364.72
2022-12-23T00:18:19.218Z,100379.78
2022-12-23T00:21:21.868Z,100366.50
2022-12-23T00:24:25.923Z,100380.22
2022-12-23T00:27:32.835Z,100382.56
2022-12-23T00:30:38.784Z,100355.16
2022-12-23T00:33:42.394Z,100317.00
2022-12-23T00:36:45.079Z,100385.69
2022-12-23T00:40:09.763Z,100339.00
2022-12-23T00:43:12.413Z,100397.66
2022-12-23T00:46:15.101Z,100389.28
2022-12-23T00:49:36.233Z,100333.13
2022-12-23T00:52:38.890Z,100393.69
2022-12-23T00:55:43.155Z,100387.16
2022-12-23T00:58:45.831Z,100399.72
2022-12-23T01:02:06.135Z,100391.66
2022-12-23T01:05:37.325Z,100408.06
2022-12-23T01:08:39.947Z,100403.03
2022-12-23T01:11:46.884Z,100388.44
2022-12-23T01:14:49.578Z,100405.56
2022-12-23T01:17:52.160Z,100387.09
2022-12-23T01:20:54.822Z,100398.06
2022-12-23T01:23:57.491Z,100413.38
2022-12-23T01:27:01.657Z,100418.94
2022-12-23T01:30:04.525Z,100414.75
2022-12-23T01:33:07.241Z,100424.72
2022-12-23T01:36:10.964Z,100443.63
2022-12-23T01:39:13.598Z,100448.38
2022-12-23T01:42:36.964Z,100457.91
2022-12-23T01:45:41.980Z,100461.06
2022-12-23T01:48:45.820Z,100467.34
2022-12-23T01:51:48.401Z,100433.88
2022-12-23T01:54:51.044Z,100472.91
2022-12-23T01:57:55.400Z,100472.09
2022-12-23T02:01:15.790Z,100476.03
2022-12-23T02:04:20.507Z,100485.94
2022-12-23T02:07:40.785Z,100493.38
2022-12-23T02:11:09.957Z,100453.03
2022-12-23T02:14:37.892Z,100445.00
2022-12-23T02:17:44.807Z,100498.03
2022-12-23T02:21:02.812Z,100449.59
2022-12-23T02:24:20.793Z,100507.72
2022-12-23T02:27:28.482Z,100446.81
2022-12-23T02:30:44.045Z,100507.28
2022-12-23T02:33:50.400Z,100508.28
2022-12-23T02:36:55.191Z,100524.34
2022-12-23T02:39:59.532Z,100497.59
2022-12-23T02:43:05.365Z,100541.25
2022-12-23T02:46:11.867Z,100533.94
2022-12-23T02:49:15.913Z,100526.06
2022-12-23T02:52:19.364Z,100538.00
2022-12-23T02:55:24.178Z,100530.91
2022-12-23T02:58:28.597Z,100535.47
2022-12-23T03:01:33.074Z,100521.38
2022-12-23T03:04:38.209Z,100517.44
2022-12-23T03:07:42.681Z,100493.03
2022-12-23T03:10:53.151Z,100472.22
2022-12-23T03:14:21.662Z,100489.44
2022-12-23T03:17:36.804Z,100483.34
2022-12-23T03:20:42.883Z,100499.03
2022-12-23T03:23:51.978Z,100504.25
2022-12-23T03:27:00.730Z,100528.38
2022-12-23T03:30:04.976Z,100485.66
2022-12-23T03:33:14.680Z,100500.72
2022-12-23T03:36:18.813Z,100539.25
2022-12-23T03:39:23.041Z,100501.81
2022-12-23T03:42:27.247Z,100478.38
2022-12-23T03:45:40.289Z,100470.75
2022-12-23T03:48:46.309Z,100531.34
2022-12-23T03:51:51.804Z,100542.56
2022-12-23T03:54:55.389Z,100539.88
2022-12-23T03:58:01.044Z,100555.31
2022-12-23T04:01:06.836Z,100564.00
2022-12-23T04:04:12.415Z,100526.31
2022-12-23T04:07:17.523Z,100531.41
2022-12-23T04:10:21.192Z,100566.88
2022-12-23T04:13:26.492Z,100539.28
2022-12-23T04:16:29.183Z,100579.69
2022-12-23T04:19:33.368Z,100503.03
2022-12-23T04:22:36.059Z,100576.91
2022-12-23T04:25:38.828Z,100511.56
2022-12-23T04:28:43.969Z,100551.53
2022-12-23T04:31:46.762Z,100566.97
2022-12-23T04:34:50.864Z,100552.50
2022-12-23T04:37:53.551Z,100560.69
2022-12-23T04:40:56.164Z,100557.56
2022-12-23T04:43:58.893Z,100554.44
2022-12-23T04:47:01.649Z,100490.94
2022-12-23T04:50:06.752Z,100552.34
2022-12-23T04:53:09.553Z,100503.03
2022-12-23T04:56:12.184Z,100519.38
2022-12-23T04:59:14.905Z,100554.44
2022-12-23T05:02:17.618Z,100552.06
2022-12-23T05:05:21.688Z,100474.50
2022-12-23T05:08:24.435Z,100560.00
2022-12-23T05:11:27.086Z,100521.09
2022-12-23T05:14:29.818Z,100571.13
2022-12-23T05:17:32.458Z,100540.47
2022-12-23T05:20:36.462Z,100578.53
2022-12-23T05:23:39.495Z,100557.59
2022-12-23T05:26:47.608Z,100569.31
2022-12-23T05:29:50.595Z,100549.13
2022-12-23T05:32:54.189Z,100599.97
2022-12-23T05:35:58.291Z,100535.16
2022-12-23T05:39:01.089Z,100574.28
2022-12-23T05:42:03.766Z,100558.38
2022-12-23T05:45:07.431Z,100535.47
2022-12-23T05:48:10.215Z,100539.41
2022-12-23T05:51:14.317Z,100568.91
2022-12-23T05:54:17.050Z,100563.34
2022-12-23T05:57:19.682Z,100551.06
2022-12-23T06:00:22.871Z,100514.31
2022-12-23T06:03:25.967Z,100540.66
2022-12-23T06:06:30.179Z,100525.44
2022-12-23T06:09:32.880Z,100536.00
2022-12-23T06:12:35.701Z,100510.66
2022-12-23T06:15:38.453Z,100543.63
2022-12-23T06:18:41.319Z,100550.81
2022-12-23T06:21:45.484Z,100556.81
2022-12-23T06:24:48.384Z,100571.19
2022-12-23T06:27:51.127Z,100576.28
2022-12-23T06:30:54.705Z,100550.19
2022-12-23T06:33:57.464Z,100566.41
2022-12-23T06:37:01.480Z,100567.28
2022-12-23T06:40:04.520Z,100575.00
2022-12-23T06:43:07.155Z,100520.22
2022-12-23T06:46:09.895Z,100557.34
2022-12-23T06:49:13.665Z,100567.28
2022-12-23T06:52:18.289Z,100507.50
2022-12-23T06:55:20.953Z,100573.94
2022-12-23T06:58:23.612Z,100523.84
2022-12-23T07:01:26.478Z,100586.22
2022-12-23T07:04:29.358Z,100587.09
2022-12-23T07:07:33.527Z,100608.38
2022-12-23T07:10:36.276Z,100562.38
2022-12-23T07:13:40.101Z,100574.34
2022-12-23T07:16:42.933Z,100585.19
2022-12-23T07:19:45.729Z,100530.13
2022-12-23T07:22:50.857Z,100523.03
2022-12-23T07:25:55.814Z,100574.06
2022-12-23T07:28:58.517Z,100538.50
2022-12-23T07:32:02.716Z,100575.69
2022-12-23T07:35:06.146Z,100581.19
2022-12-23T07:38:10.287Z,100568.50
2022-12-23T07:41:12.906Z,100573.66
2022-12-23T07:44:15.679Z,100568.44
2022-12-23T07:47:18.355Z,100560.00
2022-12-23T07:50:21.053Z,100504.44
2022-12-23T07:53:25.090Z,100570.44
2022-12-23T07:56:27.734Z,100531.50
2022-12-23T07:59:30.408Z,100554.03
2022-12-23T08:02:33.278Z,100524.34
2022-12-23T08:05:36.103Z,100545.22
2022-12-23T08:08:40.422Z,100499.00
2022-12-23T08:11:43.083Z,100539.91
2022-12-23T08:14:45.851Z,100529.94
2022-12-23T08:17:48.572Z,100515.16
2022-12-23T08:20:57.456Z,100525.78
2022-12-23T08:24:01.477Z,100529.72
2022-12-23T08:27:04.167Z,100527.31
2022-12-23T08:30:09.538Z,100501.50
2022-12-23T08:33:12.219Z,100489.97
2022-12-23T08:36:22.205Z,100497.38
2022-12-23T08:39:27.057Z,100435.47
2022-12-23T08:42:29.670Z,100446.53
2022-12-23T08:45:32.275Z,100477.22
2022-12-23T08:48:35.090Z,100481.66
2022-12-23T08:51:37.982Z,100507.97
2022-12-23T08:54:41.980Z,100453.13
2022-12-23T08:57:44.630Z,100501.69
2022-12-23T09:00:47.359Z,100474.00
2022-12-23T09:03:50.787Z,100494.53
2022-12-23T09:06:53.495Z,100490.56
2022-12-23T09:09:57.559Z,100485.81
2022-12-23T09:13:00.273Z,100503.31
2022-12-23T09:16:03.009Z,100472.38
2022-12-23T09:19:05.697Z,100466.34
2022-12-23T09:22:09.392Z,100411.38
2022-12-23T09:25:14.855Z,100433.38
2022-12-23T09:28:17.544Z,100437.94
2022-12-23T09:31:20.404Z,100456.13
2022-12-23T09:34:23.158Z,100443.50
2022-12-23T09:37:25.904Z,100431.31
2022-12-23T09:40:30.303Z,100419.72
2022-12-23T09:43:37.252Z,100362.53
2022-12-23T09:46:41.965Z,100416.91
2022-12-23T09:49:46.613Z,100380.47
2022-12-23T09:52:54.807Z,100419.22
2022-12-23T09:56:01.259Z,100423.88
2022-12-23T09:59:07.717Z,100418.22
2022-12-23T10:02:15.069Z,100382.59
2022-12-23T10:05:20.345Z,100426.09
2022-12-23T10:08:25.781Z,100417.22
2022-12-23T10:11:31.398Z,100414.44
2022-12-23T10:14:34.078Z,100408.47
2022-12-23T10:17:39.383Z,100406.09
2022-12-23T10:20:50.019Z,100406.09
2022-12-23T10:23:53.679Z,100348.72
2022-12-23T10:27:00.755Z,100403.88
2022-12-23T10:30:26.459Z,100333.63
2022-12-23T10:33:32.350Z,100367.47
2022-12-23T10:36:40.127Z,100374.00
2022-12-23T10:39:46.429Z,100364.31
2022-12-23T10:42:54.095Z,100382.59
2022-12-23T10:45:58.533Z,100383.25
2022-12-23T10:49:03.589Z,100352.13
2022-12-23T10:52:07.463Z,100364.13
2022-12-23T10:55:16.273Z,100358.06
2022-12-23T10:58:20.338Z,100361.47
2022-12-23T11:01:27.166Z,100358.94
2022-12-23T11:04:33.086Z,100332.50
2022-12-23T11:07:45.178Z,100325.88
2022-12-23T11:10:48.567Z,100299.06
2022-12-23T11:13:52.823Z,100221.28
2022-12-23T11:16:55.729Z,100193.00
2022-12-23T11:20:09.582Z,100244.63
2022-12-23T11:23:27.589Z,100202.69
2022-12-23T11:26:30.102Z,100272.75
2022-12-23T11:29:35.310Z,100213.06
2022-12-23T11:32:38.024Z,100196.78
2022-12-23T11:35:40.725Z,100216.31
2022-12-23T11:38:49.229Z,100213.34
2022-12-23T11:41:53.220Z,100197.56
2022-12-23T11:44:59.152Z,100210.03
2022-12-23T11:48:01.829Z,100193.56
2022-12-23T11:51:06.199Z,100243.34
2022-12-23T11:54:15.962Z,100222.00
2022-12-23T11:57:19.997Z,100194.75
2022-12-23T12:00:26.102Z,100148.09
2022-12-23T12:03:29.828Z,100135.47
2022-12-23T12:06:32.685Z,100150.47
2022-12-23T12:09:35.432Z,100148.31
2022-12-23T12:12:38.191Z,100129.00
2022-12-23T12:15:44.607Z,100149.19
2022-12-23T12:18:53.665Z,100137.41
2022-12-23T12:22:00.008Z,100141.41
2022-12-23T12:25:12.978Z,100048.25
2022-12-23T12:28:18.413Z,100050.44
2022-12-23T12:31:24.990Z,100102.13
2022-12-23T12:34:35.974Z,100087.19
2022-12-23T12:37:42.088Z,100115.31
2022-12-23T12:40:46.642Z,100081.03
2022-12-23T12:43:52.030Z,100122.56
2022-12-23T12:46:58.228Z,100059.09
2022-12-23T12:50:01.997Z,100092.19
2022-12-23T12:53:10.182Z,100053.53
2022-12-23T12:56:14.863Z,100085.00
2022-12-23T12:59:18.727Z,100032.16
2022-12-23T13:02:31.721Z,100030.66
2022-12-23T13:05:53.830Z,100065.00
2022-12-23T13:09:02.449Z,100035.94
2022-12-23T13:12:06.816Z,100029.16
2022-12-23T13:15:15.321Z,100019.91
2022-12-23T13:18:28.341Z,100024.50
2022-12-23T13:21:33.786Z,99967.72
2022-12-23T13:24:39.219Z,100004.47
2022-12-23T13:27:45.315Z,99987.00
2022-12-23T13:30:49.823Z,100017.16
2022-12-23T13:33:56.020Z,99981.31
2022-12-23T13:37:01.912Z,99978.06
2022-12-23T13:40:10.285Z,100008.16
2022-12-23T13:43:20.088Z,99926.91
2022-12-23T13:46:26.344Z,99939.34
2022-12-23T13:49:44.388Z,99990.75
2022-12-23T13:52:56.392Z,99988.78
2022-12-23T13:56:04.575Z,99949.63
2022-12-23T13:59:09.738Z,99978.22
2022-12-23T14:02:44.634Z,99983.63
2022-12-23T14:05:50.468Z,99899.94
2022-12-23T14:08:53.401Z,99954.97
2022-12-23T14:12:00.969Z,99968.28
2022-12-23T14:15:29.320Z,99982.75
2022-12-23T14:18:49.197Z,99974.06
2022-12-23T14:22:02.331Z,99991.56
2022-12-23T14:25:44.432Z,99978.88
2022-12-23T14:29:07.670Z,99935.69
2022-12-23T14:32:20.250Z,99944.44
2022-12-23T14:35:28.876Z,99973.66
2022-12-23T14:38:33.521Z,99971.34
2022-12-23T14:41:39.705Z,99985.25
2022-12-23T14:44:49.163Z,99926.03
2022-12-23T14:47:52.016Z,99937.84
2022-12-23T14:50:57.847Z,99910.47
2022-12-23T14:54:15.474Z,99978.31
2022-12-23T14:57:19.546Z,99953.81
2022-12-23T15:00:22.265Z,99983.78
2022-12-23T15:03:25.018Z,99980.84
2022-12-23T15:06:33.142Z,99964.63
2022-12-23T15:09:39.540Z,99970.66
2022-12-23T15:12:47.327Z,99951.25
2022-12-23T15:15:58.977Z,99931.94
2022-12-23T15:19:20.036Z,99964.34
2022-12-23T15:22:31.923Z,99961.91
2022-12-23T15:25:36.958Z,99951.59
2022-12-23T15:28:41.743Z,99948.41
2022-12-23T15:31:47.378Z,99966.41
2022-12-23T15:34:50.192Z,99963.00
2022-12-23T15:37:52.892Z,99913.16
2022-12-23T15:40:59.793Z,99970.31
2022-12-23T15:44:02.450Z,99950.88
2022-12-23T15:47:23.267Z,99946.06
2022-12-23T15:50:26.003Z,99993.53
2022-12-23T15:53:30.328Z,99922.66
2022-12-23T15:56:35.316Z,100026.97
2022-12-23T15:59:38.828Z,99957.16
2022-12-23T16:03:01.538Z,100019.88
2022-12-23T16:06:10.597Z,99958.88
2022-12-23T16:09:24.985Z,100010.72
2022-12-23T16:12:29.140Z,100019.81
2022-12-23T16:15:32.854Z,99995.63
2022-12-23T16:18:36.253Z,100023.00
2022-12-23T16:21:38.854Z,100010.34
2022-12-23T16:24:45.056Z,100008.78
2022-12-23T16:27:49.801Z,100014.44
2022-12-23T16:30:53.254Z,100023.22
2022-12-23T16:33:56.732Z,100003.19
2022-12-23T16:36:59.340Z,100027.38
2022-12-23T16:40:02.287Z,100015.44
2022-12-23T16:43:06.320Z,99981.78
2022-12-23T16:46:09.383Z,99999.91
2022-12-23T16:49:15.382Z,100038.91
2022-12-23T16:52:18.156Z,100039.41
2022-12-23T16:55:21.173Z,99986.88
2022-12-23T16:58:25.450Z,99953.88
2022-12-23T17:01:29.375Z,100024.81
2022-12-23T17:04:32.103Z,100000.00
2022-12-23T17:07:38.720Z,100013.91
2022-12-23T17:10:44.874Z,100053.00
2022-12-23T17:13:49.090Z,99995.25
2022-12-23T17:16:52.190Z,100006.69
2022-12-23T17:19:56.205Z,100051.22
2022-12-23T17:23:03.456Z,100014.72
2022-12-23T17:26:06.438Z,100058.75
2022-12-23T17:29:12.419Z,100055.25
2022-12-23T17:32:16.002Z,100064.78
2022-12-23T17:35:19.949Z,100051.88
2022-12-23T17:38:22.905Z,100054.59
2022-12-23T17:41:27.736Z,100017.63
2022-12-23T17:44:31.890Z,100002.63
2022-12-23T17:47:34.681Z,99996.53
2022-12-23T17:50:37.341Z,100070.44
2022-12-23T17:53:40.140Z,100057.56
2022-12-23T17:56:45.989Z,100050.91
2022-12-23T17:59:50.473Z,100035.66
2022-12-23T18:02:53.290Z,100092.72
2022-12-23T18:06:01.771Z,100019.38
2022-12-23T18:09:05.036Z,100089.31
2022-12-23T18:12:08.077Z,100097.56
2022-12-23T18:15:20.509Z,100095.97
2022-12-23T18:18:32.123Z,100106.31
2022-12-23T18:21:38.148Z,100069.78
2022-12-23T18:24:40.797Z,100093.88
2022-12-23T18:27:43.536Z,100071.41
2022-12-23T18:30:47.561Z,100105.59
2022-12-23T18:33:50.360Z,100074.28
2022-12-23T18:36:53.126Z,100112.75
2022-12-23T18:39:55.934Z,100110.38
2022-12-23T18:42:58.634Z,100104.91
2022-12-23T18:46:02.720Z,100108.69
2022-12-23T18:49:05.507Z,100132.75
2022-12-23T18:52:10.207Z,100140.75
2022-12-23T18:55:12.964Z,100121.00
2022-12-23T18:58:15.930Z,100080.56
2022-12-23T19:01:19.982Z,100129.59
2022-12-23T19:04:22.775Z,100099.66
2022-12-23T19:07:25.447Z,100143.06
2022-12-23T19:10:29.289Z,100120.63
2022-12-23T19:13:33.192Z,100139.00
2022-12-23T19:16:37.374Z,100125.59
2022-12-23T19:19:40.513Z,100159.53
2022-12-23T19:22:43.436Z,100181.81
2022-12-23T19:25:54.561Z,100130.31
2022-12-23T19:28:57.740Z,100185.34
2022-12-23T19:32:01.891Z,100173.63
2022-12-23T19:35:04.671Z,100168.19
2022-12-23T19:38:07.545Z,100116.31
2022-12-23T19:41:10.330Z,100148.34
2022-12-23T19:44:13.233Z,100134.88
2022-12-23T19:47:17.419Z,100196.03
2022-12-23T19:50:22.136Z,100217.59
2022-12-23T19:53:24.933Z,100215.75
2022-12-23T19:56:29.375Z,100204.72
2022-12-23T19:59:32.112Z,100233.53
2022-12-23T20:02:36.648Z,100223.22
2022-12-23T20:05:40.104Z,100169.44
2022-12-23T20:08:45.659Z,100241.59
2022-12-23T20:11:49.036Z,100238.31
2022-12-23T20:14:51.732Z,100259.06
2022-12-23T20:17:55.758Z,100250.25
2022-12-23T20:20:59.547Z,100232.41
2022-12-23T20:24:02.390Z,100227.78
2022-12-23T20:27:09.528Z,100278.06
2022-12-23T20:30:14.400Z,100296.03
2022-12-23T20:33:18.568Z,100247.09
2022-12-23T20:36:22.644Z,100276.41
2022-12-23T20:39:25.368Z,100311.63
2022-12-23T20:42:28.172Z,100270.19
2022-12-23T20:45:30.865Z,100242.88
2022-12-23T20:48:35.115Z,100246.75
2022-12-23T20:51:37.857Z,100306.38
2022-12-23T20:54:40.566Z,100331.94
2022-12-23T20:57:45.363Z,100332.75
2022-12-23T21:00:48.382Z,100320.88
2022-12-23T21:03:53.092Z,100312.38
2022-12-23T21:06:55.918Z,100307.09
2022-12-23T21:09:58.802Z,100363.44
2022-12-23T21:13:01.511Z,100370.13
2022-12-23T21:16:04.532Z,100358.84
2022-12-23T21:19:09.692Z,100357.97
2022-12-23T21:22:12.492Z,100323.00
2022-12-23T21:25:17.658Z,100394.25
2022-12-23T21:28:20.335Z,100390.94
2022-12-23T21:31:23.907Z,100368.97
2022-12-23T21:34:28.076Z,100372.63
2022-12-23T21:37:30.750Z,100356.28
2022-12-23T21:40:33.418Z,100390.66
2022-12-23T21:43:36.239Z,100430.00
2022-12-23T21:46:39.010Z,100441.97
2022-12-23T21:49:44.194Z,100427.69
2022-12-23T21:52:46.955Z,100442.72
2022-12-23T21:55:49.724Z,100438.28
2022-12-23T21:58:55.961Z,100432.88
2022-12-23T22:01:58.724Z,100446.94
2022-12-23T22:05:03.690Z,100446.94
2022-12-23T22:08:07.087Z,100458.16
2022-12-23T22:11:10.345Z,100444.28
2022-12-23T22:14:14.433Z,100444.13
2022-12-23T22:17:17.168Z,100448.00
2022-12-23T22:20:21.329Z,100469.88
2022-12-23T22:23:24.048Z,100485.31
2022-12-23T22:26:27.728Z,100496.81
2022-12-23T22:29:30.402Z,100487.69
2022-12-23T22:32:36.553Z,100472.50
2022-12-23T22:35:43.209Z,100437.41
2022-12-23T22:38:45.906Z,100499.25
2022-12-23T22:41:48.711Z,100487.22
2022-12-23T22:44:51.408Z,100467.69
2022-12-23T22:47:54.231Z,100527.72
2022-12-23T22:51:03.915Z,100448.13
2022-12-23T22:54:06.718Z,100522.84
2022-12-23T22:57:11.129Z,100528.00
2022-12-23T23:00:14.566Z,100523.94
2022-12-23T23:03:17.325Z,100534.63
2022-12-23T23:06:21.471Z,100522.25
2022-12-23T23:09:24.219Z,100520.47
2022-12-23T23:12:27.002Z,100478.28
2022-12-23T23:15:29.799Z,100485.47
2022-12-23T23:18:32.518Z,100547.56
2022-12-23T23:21:37.680Z,100501.19
2022-12-23T23:24:40.384Z,100555.50
2022-12-23T23:27:42.985Z,100560.25
2022-12-23T23:30:45.660Z,100571.47
2022-12-23T23:33:48.327Z,100578.41
2022-12-23T23:36:52.479Z,100571.22
2022-12-23T23:39:55.160Z,100573.53
2022-12-23T23:43:00.443Z,100535.03
2022-12-23T23:46:03.164Z,100574.25
2022-12-23T23:49:06.157Z,100582.78
2022-12-23T23:52:10.230Z,100598.31
2022-12-23T23:55:12.909Z,100597.16
2022-12-23T23:58:15.593Z,100616.19
